Twyford, United Kingdom
Current Conditions -  °F | °C
As of 3:50 PM on Sunday 25 Jan 2015 (Local Time) from EGUB Reporting Station
Broken Clouds Broken Clouds  
Wind Chill: 42°   Ceiling: 1800
Heat Index: 46°   Visibility: 6mi
Dew Point: 41°   Wind: 9mph
Humidity: 81%   Direction: 230°SW
Pressure: 30.36"   Gusts: NA
Location:  51.48°N, 0.86°W
Report Text: EGUB 251550Z 23008KT 9999 BKN018 08/05 Q1028 WHT NOSIG
Loading
Personal Weather Stations






























Interactive Weather Map New forecast layout! Learn more

10-Day Weather Forecast

Advertisements
Track Severe Weather on mobile